Time;durP1;ratioP1;P1;durP2;ratioP2;P2;SDS_P1;SDS_P2;PMS_P1;PMS_P2;Temp;Humidity;BMP_temperature;BMP_pressure;BME280_temperature;BME280_humidity;BME280_pressure;Samples;Min_cycle;Max_cycle;Signal;HPM_P1;HPM_P2
2022/09/08 00:00:57;;;;;;;7.93;6.27;;;24.20;90.30;;;;;;5122712;27;20203;-71
2022/09/08 00:03:27;;;;;;;9.33;6.90;;;24.20;90.30;;;;;;5104027;27;20580;-71
2022/09/08 00:06:04;;;;;;;7.67;6.57;;;24.20;90.40;;;;;;5118477;27;20203;-71
2022/09/08 00:08:32;;;;;;;9.07;6.80;;;24.10;90.50;;;;;;5118711;27;20693;-71
2022/09/08 00:11:02;;;;;;;7.33;6.63;;;24.10;90.50;;;;;;5120229;27;20269;-71
2022/09/08 00:13:32;;;;;;;10.40;6.77;;;24.10;90.50;;;;;;5119411;27;20241;-71
2022/09/08 00:16:02;;;;;;;8.97;6.43;;;24.10;90.50;;;;;;5086344;28;20653;-71
2022/09/08 00:18:36;;;;;;;9.20;6.30;;;24.10;90.50;;;;;;5117195;27;20235;-71
2022/09/08 00:21:03;;;;;;;10.17;6.83;;;24.10;90.50;;;;;;5101413;28;20213;-71
2022/09/08 00:23:30;;;;;;;8.67;7.00;;;24.10;90.60;;;;;;5129351;27;20206;-71
2022/09/08 00:25:58;;;;;;;9.13;6.53;;;24.10;90.70;;;;;;5121204;27;20209;-71
2022/09/08 00:28:25;;;;;;;8.03;6.73;;;24.10;90.70;;;;;;5114838;27;20224;-71
2022/09/08 00:30:54;;;;;;;10.50;6.87;;;24.10;90.80;;;;;;5102093;28;20576;-71
2022/09/08 00:33:23;;;;;;;11.80;6.23;;;24.10;90.90;;;;;;5121856;27;20208;-72
2022/09/08 00:35:51;;;;;;;11.73;6.83;;;24.00;91.00;;;;;;5124614;27;20570;-71
2022/09/08 00:38:19;;;;;;;9.67;7.27;;;24.10;91.10;;;;;;5124657;27;20214;-71
2022/09/08 00:40:49;;;;;;;9.20;7.30;;;24.00;91.10;;;;;;5118013;27;20546;-72
2022/09/08 00:43:33;;;;;;;7.63;6.90;;;24.00;91.10;;;;;;5097651;28;20201;-71
2022/09/08 00:46:26;;;;;;;8.20;7.40;;;24.00;91.30;;;;;;5115746;27;20199;-71
2022/09/08 00:49:34;;;;;;;18.13;8.23;;;24.00;91.30;;;;;;5088093;28;20252;-72
2022/09/08 00:52:01;;;;;;;10.97;7.17;;;24.00;91.50;;;;;;5012673;28;20204;-70
2022/09/08 00:54:29;;;;;;;10.83;7.33;;;23.90;91.50;;;;;;5096437;27;20207;-71
2022/09/08 00:56:57;;;;;;;9.20;7.47;;;23.90;91.60;;;;;;5085904;27;20272;-71
2022/09/08 00:59:26;;;;;;;12.53;7.70;;;23.90;91.60;;;;;;5108144;27;20686;-71
2022/09/08 01:01:53;;;;;;;10.17;7.77;;;23.90;91.60;;;;;;5093387;28;20212;-71
2022/09/08 01:04:21;;;;;;;8.67;7.87;;;23.90;91.60;;;;;;5121097;27;20205;-71
2022/09/08 01:13:02;;;;;;;8.83;7.87;;;23.90;91.70;;;;;;5116725;27;20197;-71
2022/09/08 01:15:29;;;;;;;8.40;7.20;;;23.90;91.70;;;;;;5103329;28;20244;-71
2022/09/08 01:17:56;;;;;;;12.60;7.93;;;23.90;91.70;;;;;;5116061;28;20249;-71
2022/09/08 01:20:28;;;;;;;8.87;7.47;;;23.90;91.70;;;;;;5121287;27;20309;-71
2022/09/08 01:23:03;;;;;;;8.60;7.10;;;23.90;91.70;;;;;;5118439;27;20300;-71
2022/09/08 01:25:30;;;;;;;13.87;8.03;;;23.90;91.70;;;;;;5117953;27;20214;-70
2022/09/08 01:28:19;;;;;;;12.57;7.93;;;23.90;91.90;;;;;;5121352;27;20192;-70
2022/09/08 01:30:47;;;;;;;8.23;7.50;;;23.90;91.70;;;;;;5121135;27;20211;-71
2022/09/08 01:33:16;;;;;;;7.87;7.07;;;23.90;91.70;;;;;;5119050;27;20234;-71
2022/09/08 01:35:43;;;;;;;8.67;7.73;;;23.90;91.70;;;;;;5111749;27;20293;-70
2022/09/08 01:38:11;;;;;;;10.53;7.80;;;23.90;91.80;;;;;;5114077;28;20226;-70
2022/09/08 01:40:39;;;;;;;8.57;7.63;;;23.90;91.80;;;;;;5116541;28;20196;-70
2022/09/08 01:43:09;;;;;;;9.33;6.93;;;23.90;91.80;;;;;;5099333;28;20197;-70
2022/09/08 01:45:37;;;;;;;11.67;8.00;;;23.80;91.80;;;;;;5120225;28;20294;-71
2022/09/08 01:48:05;;;;;;;9.87;7.83;;;23.90;91.90;;;;;;5103703;28;20199;-70
2022/09/08 01:50:33;;;;;;;9.77;7.97;;;23.80;91.90;;;;;;5117180;28;20651;-71
2022/09/08 01:53:00;;;;;;;9.60;8.30;;;23.80;91.90;;;;;;5100621;28;20229;-70
2022/09/08 01:55:27;;;;;;;9.00;7.67;;;23.80;92.00;;;;;;5102198;28;20196;-71
2022/09/08 01:57:54;;;;;;;9.93;8.30;;;23.80;92.10;;;;;;5112742;28;20200;-71
2022/09/08 02:00:21;;;;;;;10.63;8.70;;;23.80;92.10;;;;;;5116850;28;20234;-70
2022/09/08 02:02:48;;;;;;;9.53;8.63;;;23.80;92.20;;;;;;5098211;28;20643;-70
2022/09/08 02:05:16;;;;;;;11.80;9.37;;;23.80;92.30;;;;;;5108947;28;20213;-70
2022/09/08 02:07:50;;;;;;;10.90;9.80;;;23.80;92.40;;;;;;5123756;28;20196;-70
2022/09/08 02:10:17;;;;;;;10.70;9.67;;;23.80;92.40;;;;;;5125684;27;20226;-71
2022/09/08 02:12:44;;;;;;;10.77;9.63;;;23.80;92.40;;;;;;5124456;27;20268;-70
2022/09/08 02:15:11;;;;;;;12.27;10.13;;;23.80;92.40;;;;;;5124652;27;20261;-70
2022/09/08 02:17:38;;;;;;;10.93;9.50;;;23.80;92.40;;;;;;5103113;28;20193;-70
2022/09/08 02:20:06;;;;;;;13.77;9.67;;;23.80;92.40;;;;;;5098746;28;20683;-71
2022/09/08 02:22:33;;;;;;;14.03;9.67;;;23.80;92.30;;;;;;5101032;27;20193;-71
2022/09/08 02:25:00;;;;;;;11.53;9.43;;;23.80;92.20;;;;;;5110298;27;20239;-70
2022/09/08 02:27:27;;;;;;;12.83;10.60;;;23.80;92.20;;;;;;5121973;27;20208;-71
2022/09/08 02:29:54;;;;;;;16.13;10.67;;;23.80;92.20;;;;;;5106092;27;20276;-70
2022/09/08 02:32:21;;;;;;;11.53;10.43;;;23.70;92.30;;;;;;5107139;28;20204;-70
2022/09/08 02:34:48;;;;;;;14.60;10.27;;;23.70;92.50;;;;;;5104162;28;20201;-70
2022/09/08 02:37:16;;;;;;;11.83;10.57;;;23.70;92.60;;;;;;5117443;27;20220;-70
2022/09/08 02:39:43;;;;;;;10.33;8.97;;;23.70;92.80;;;;;;5098596;28;20217;-70
2022/09/08 02:42:11;;;;;;;10.40;9.37;;;23.70;92.90;;;;;;5119241;27;20243;-70
2022/09/08 02:44:38;;;;;;;14.23;9.47;;;23.70;92.90;;;;;;5101950;27;20214;-70
2022/09/08 02:47:06;;;;;;;11.30;10.03;;;23.60;92.80;;;;;;5114752;27;20205;-70
2022/09/08 02:49:34;;;;;;;12.93;10.23;;;23.70;92.90;;;;;;5106446;27;20249;-70
2022/09/08 02:52:01;;;;;;;18.63;10.80;;;23.60;93.00;;;;;;5100120;27;20265;-70
2022/09/08 02:54:28;;;;;;;12.43;11.13;;;23.60;93.00;;;;;;5116750;27;20194;-70
2022/09/08 02:56:55;;;;;;;12.53;10.10;;;23.60;93.10;;;;;;5116455;27;20253;-70
2022/09/08 02:59:22;;;;;;;12.97;10.17;;;23.70;93.20;;;;;;5104966;27;20605;-70
2022/09/08 03:01:49;;;;;;;12.80;10.40;;;23.60;93.20;;;;;;5119884;27;20204;-70
2022/09/08 03:04:16;;;;;;;12.87;9.87;;;23.60;93.30;;;;;;5106850;28;20299;-70
2022/09/08 03:06:43;;;;;;;14.20;11.13;;;23.60;93.40;;;;;;5121252;27;20231;-70
2022/09/08 03:09:11;;;;;;;11.97;10.10;;;23.60;93.50;;;;;;5119893;27;20284;-70
2022/09/08 03:11:38;;;;;;;12.73;10.63;;;23.60;93.50;;;;;;5120788;27;20275;-70
2022/09/08 03:14:06;;;;;;;11.87;10.50;;;23.60;93.50;;;;;;5127636;27;20216;-70
2022/09/08 03:16:33;;;;;;;18.03;11.10;;;23.60;93.40;;;;;;5122028;27;20242;-70
2022/09/08 03:19:00;;;;;;;11.63;10.53;;;23.60;93.40;;;;;;5120532;27;20256;-70
2022/09/08 03:21:27;;;;;;;12.87;10.40;;;23.60;93.50;;;;;;5120402;27;20205;-70
2022/09/08 03:23:54;;;;;;;15.33;10.83;;;23.60;93.40;;;;;;5116618;27;20252;-70
2022/09/08 03:26:22;;;;;;;13.60;10.83;;;23.60;93.40;;;;;;5102156;27;20207;-70
2022/09/08 03:28:51;;;;;;;10.80;9.73;;;23.60;93.40;;;;;;5101641;27;20281;-70
2022/09/08 03:31:20;;;;;;;11.67;10.47;;;23.60;93.50;;;;;;5085529;28;20690;-70
2022/09/08 03:33:47;;;;;;;17.23;10.93;;;23.60;93.50;;;;;;5122763;27;20276;-70
2022/09/08 03:36:15;;;;;;;12.73;10.13;;;23.60;93.50;;;;;;5107738;27;20638;-71
2022/09/08 03:38:43;;;;;;;16.80;10.30;;;23.60;93.50;;;;;;5124506;27;20553;-70
2022/09/08 03:41:13;;;;;;;15.07;11.20;;;23.60;93.50;;;;;;5103970;28;20208;-70
2022/09/08 03:43:48;;;;;;;13.57;10.30;;;23.60;93.50;;;;;;5115549;27;20232;-70
2022/09/08 03:46:16;;;;;;;14.50;10.93;;;23.60;93.60;;;;;;5118716;27;20196;-70
2022/09/08 03:48:44;;;;;;;13.77;10.70;;;23.60;93.70;;;;;;5092382;28;20193;-70
2022/09/08 03:51:24;;;;;;;15.07;11.87;;;23.50;93.80;;;;;;5120439;27;20642;-70
2022/09/08 03:53:52;;;;;;;14.37;11.87;;;23.50;94.00;;;;;;5101598;27;20207;-70
2022/09/08 03:56:20;;;;;;;11.53;10.43;;;23.50;94.00;;;;;;5120353;27;20197;-71
2022/09/08 03:58:47;;;;;;;13.87;12.13;;;23.50;94.20;;;;;;5117574;27;20273;-70
2022/09/08 04:01:17;;;;;;;15.27;10.63;;;23.50;94.20;;;;;;5120803;27;20248;-70
2022/09/08 04:03:44;;;;;;;15.27;11.60;;;23.40;94.20;;;;;;5113803;27;20201;-69
2022/09/08 04:06:13;;;;;;;15.33;12.00;;;23.50;94.30;;;;;;5117054;27;20200;-70
2022/09/08 04:08:40;;;;;;;15.33;12.10;;;23.50;94.30;;;;;;5116727;27;20589;-70
2022/09/08 04:11:08;;;;;;;14.60;12.57;;;23.50;94.30;;;;;;5116417;27;20269;-69
2022/09/08 04:13:35;;;;;;;18.40;11.80;;;23.50;94.20;;;;;;5126064;27;20207;-70
2022/09/08 04:16:03;;;;;;;12.50;11.20;;;23.60;94.20;;;;;;5119516;27;20687;-70
2022/09/08 04:18:31;;;;;;;15.37;12.40;;;23.60;94.10;;;;;;5116244;27;20244;-71
2022/09/08 04:20:59;;;;;;;15.60;12.50;;;23.60;94.10;;;;;;5118107;27;20669;-69
2022/09/08 04:23:27;;;;;;;14.27;12.10;;;23.70;94.10;;;;;;5101559;27;20568;-70
2022/09/08 04:25:56;;;;;;;17.13;12.90;;;23.60;94.00;;;;;;5118306;27;20204;-70
2022/09/08 04:28:23;;;;;;;13.40;11.47;;;23.60;94.00;;;;;;5123703;27;20235;-70
2022/09/08 04:30:50;;;;;;;16.57;12.07;;;23.70;94.00;;;;;;5120286;27;20772;-70
2022/09/08 04:33:18;;;;;;;15.40;12.50;;;23.70;93.90;;;;;;5112570;27;20220;-70
2022/09/08 04:35:45;;;;;;;14.13;12.13;;;23.70;93.80;;;;;;5114603;27;20614;-70
2022/09/08 04:38:12;;;;;;;16.93;12.40;;;23.70;93.70;;;;;;5100825;28;20232;-69
2022/09/08 04:40:40;;;;;;;13.20;11.70;;;23.70;93.60;;;;;;5112648;27;20231;-69
2022/09/08 04:43:07;;;;;;;13.83;12.17;;;23.70;93.50;;;;;;5116688;27;20211;-69
2022/09/08 04:45:34;;;;;;;13.77;11.83;;;23.60;93.50;;;;;;5116611;27;20291;-69
2022/09/08 04:48:01;;;;;;;16.53;11.37;;;23.60;93.30;;;;;;5116121;27;20326;-70
2022/09/08 04:50:28;;;;;;;16.63;12.27;;;23.60;93.40;;;;;;5116820;27;20228;-70
2022/09/08 04:52:55;;;;;;;15.43;12.27;;;23.60;93.40;;;;;;5116526;27;20254;-70
2022/09/08 04:55:23;;;;;;;18.47;11.70;;;23.60;93.40;;;;;;5122004;27;20201;-71
2022/09/08 04:57:50;;;;;;;16.03;11.37;;;23.60;93.50;;;;;;5106413;27;20205;-69
2022/09/08 05:00:18;;;;;;;15.67;11.13;;;23.60;93.50;;;;;;5114425;27;20232;-69
2022/09/08 05:02:46;;;;;;;14.90;11.43;;;23.60;93.50;;;;;;5114609;27;20580;-70
2022/09/08 05:05:13;;;;;;;13.13;11.57;;;23.60;93.50;;;;;;5117504;27;20540;-70
2022/09/08 05:07:40;;;;;;;13.00;11.40;;;23.60;93.50;;;;;;5121308;27;20203;-70
2022/09/08 05:10:07;;;;;;;12.77;11.13;;;23.60;93.50;;;;;;5116654;27;20285;-71
2022/09/08 05:12:34;;;;;;;13.97;11.00;;;23.60;93.70;;;;;;5101389;27;20224;-71
2022/09/08 05:15:01;;;;;;;12.80;10.93;;;23.60;93.40;;;;;;5110803;27;20634;-70
2022/09/08 05:17:29;;;;;;;15.07;10.90;;;23.60;93.40;;;;;;5095949;28;20251;-71
2022/09/08 05:19:56;;;;;;;12.10;10.80;;;23.60;93.30;;;;;;5118177;27;20232;-70
2022/09/08 05:22:23;;;;;;;16.23;11.27;;;23.60;93.10;;;;;;5108320;27;20343;-70
2022/09/08 05:24:52;;;;;;;12.20;10.77;;;23.60;93.00;;;;;;5113500;28;20224;-70
2022/09/08 05:27:19;;;;;;;15.17;10.03;;;23.60;93.00;;;;;;5100778;28;20676;-70
2022/09/08 05:29:46;;;;;;;11.93;10.30;;;23.60;93.10;;;;;;5119087;27;20255;-70
2022/09/08 05:32:13;;;;;;;13.53;10.50;;;23.60;93.10;;;;;;5117057;27;20257;-70
2022/09/08 05:34:40;;;;;;;11.07;9.30;;;23.60;93.10;;;;;;5118693;28;20195;-70
2022/09/08 05:37:07;;;;;;;11.37;9.37;;;23.60;93.00;;;;;;5102238;28;20239;-71
2022/09/08 05:39:34;;;;;;;12.33;10.03;;;23.60;92.90;;;;;;5101403;28;20211;-70
2022/09/08 05:42:01;;;;;;;15.23;10.27;;;23.60;92.90;;;;;;5124104;28;20677;-70
2022/09/08 05:44:28;;;;;;;13.67;10.37;;;23.60;92.90;;;;;;5118904;28;20584;-70
2022/09/08 05:46:55;;;;;;;12.27;10.93;;;23.60;93.00;;;;;;5120135;28;20191;-70
2022/09/08 05:49:22;;;;;;;13.33;10.47;;;23.60;93.00;;;;;;5126255;28;20203;-71
2022/09/08 05:51:52;;;;;;;13.77;10.20;;;23.70;93.10;;;;;;5117157;28;20633;-70
2022/09/08 05:54:21;;;;;;;15.00;10.30;;;23.70;93.00;;;;;;5117345;28;20200;-70
2022/09/08 05:56:48;;;;;;;14.67;10.17;;;23.70;92.90;;;;;;5099138;28;20197;-70
2022/09/08 05:59:15;;;;;;;14.07;10.40;;;23.70;93.00;;;;;;5114066;28;20792;-71
2022/09/08 06:01:42;;;;;;;13.07;9.80;;;23.80;93.10;;;;;;5104256;28;20252;-70
2022/09/08 06:04:10;;;;;;;13.73;10.63;;;23.80;93.00;;;;;;5115001;28;20261;-70
2022/09/08 06:06:37;;;;;;;15.33;10.67;;;23.90;93.00;;;;;;5100796;28;20551;-70
2022/09/08 06:09:06;;;;;;;18.70;10.17;;;23.90;93.00;;;;;;5114458;28;20320;-70
2022/09/08 06:11:35;;;;;;;14.60;10.37;;;23.90;92.90;;;;;;5093413;28;20714;-70
2022/09/08 06:14:02;;;;;;;14.97;9.77;;;23.90;92.90;;;;;;5116886;28;20574;-70
2022/09/08 06:16:30;;;;;;;16.27;10.43;;;24.00;93.00;;;;;;5101904;28;20303;-70
2022/09/08 06:18:58;;;;;;;12.97;10.50;;;24.00;93.00;;;;;;5087153;28;20297;-70
2022/09/08 06:21:28;;;;;;;15.30;10.57;;;24.00;93.00;;;;;;5077476;28;20650;-70
2022/09/08 06:23:58;;;;;;;11.40;9.90;;;24.00;92.90;;;;;;5116450;28;20197;-71
2022/09/08 06:26:54;;;;;;;15.43;9.43;;;24.10;92.90;;;;;;5102391;28;20242;-71
2022/09/08 06:29:24;;;;;;;12.43;9.47;;;24.00;92.80;;;;;;5118772;28;20224;-70
2022/09/08 06:32:00;;;;;;;11.03;9.77;;;24.10;92.80;;;;;;5105065;28;20227;-71
2022/09/08 06:34:37;;;;;;;16.70;10.00;;;24.10;92.80;;;;;;5088297;28;20645;-71
2022/09/08 06:37:10;;;;;;;12.33;9.37;;;24.10;92.90;;;;;;5116570;28;20637;-70
2022/09/08 06:39:44;;;;;;;13.43;10.20;;;24.20;93.00;;;;;;5119119;28;20224;-70
2022/09/08 06:42:50;;;;;;;14.53;10.37;;;24.20;92.90;;;;;;5085414;28;20260;-70
2022/09/08 06:45:27;;;;;;;10.37;9.27;;;24.30;92.70;;;;;;5088111;28;20881;-70
2022/09/08 06:48:06;;;;;;;13.33;9.67;;;24.40;92.50;;;;;;5090424;28;20201;-70
2022/09/08 06:50:37;;;;;;;19.83;10.93;;;24.40;92.50;;;;;;5097894;28;20217;-70
2022/09/08 06:53:12;;;;;;;11.03;9.20;;;24.50;92.60;;;;;;5105913;28;20200;-70
2022/09/08 06:55:56;;;;;;;19.70;12.13;;;24.60;92.70;;;;;;5125304;27;20253;-69
2022/09/08 06:58:44;;;;;;;14.27;9.57;;;24.70;92.60;;;;;;5105922;27;20287;-70
2022/09/08 07:01:43;;;;;;;14.27;9.90;;;24.80;92.40;;;;;;5124773;27;20209;-70
2022/09/08 07:04:32;;;;;;;12.73;9.37;;;24.90;92.30;;;;;;5094015;27;20255;-69
2022/09/08 07:07:09;;;;;;;14.13;9.63;;;25.00;92.20;;;;;;5116078;27;20207;-69
2022/09/08 07:09:48;;;;;;;11.73;9.47;;;25.10;92.00;;;;;;5123002;27;20212;-70
2022/09/08 07:12:29;;;;;;;11.37;9.00;;;25.10;91.90;;;;;;5114045;27;20199;-71
2022/09/08 07:15:11;;;;;;;14.50;9.23;;;25.20;91.90;;;;;;5114223;27;20226;-70
2022/09/08 07:18:02;;;;;;;12.50;8.63;;;25.30;91.80;;;;;;5122299;27;20208;-70
2022/09/08 07:20:29;;;;;;;14.80;9.27;;;25.40;91.50;;;;;;5117142;27;20933;-70
2022/09/08 07:22:59;;;;;;;11.87;8.07;;;25.40;91.10;;;;;;5123046;27;20280;-72
2022/09/08 07:25:40;;;;;;;12.60;9.60;;;25.50;90.90;;;;;;5122041;27;20209;-70
2022/09/08 07:28:12;;;;;;;15.50;9.50;;;25.50;90.90;;;;;;5112207;27;20244;-70
2022/09/08 07:30:40;;;;;;;12.77;9.23;;;25.50;90.90;;;;;;5114161;27;20208;-71
2022/09/08 07:33:30;;;;;;;13.20;9.37;;;25.50;90.90;;;;;;5109694;27;20197;-71
2022/09/08 07:36:30;;;;;;;10.47;8.80;;;25.50;90.90;;;;;;5123111;27;20196;-70
2022/09/08 07:39:09;;;;;;;11.17;8.87;;;25.50;91.00;;;;;;5121232;27;20197;-71
2022/09/08 07:41:40;;;;;;;15.07;9.37;;;25.50;91.00;;;;;;5104631;27;20208;-71
2022/09/08 07:44:16;;;;;;;13.10;9.80;;;25.60;91.10;;;;;;5114154;27;20673;-71
2022/09/08 07:47:16;;;;;;;14.43;9.90;;;25.60;91.20;;;;;;5115545;27;20272;-71
2022/09/08 07:50:05;;;;;;;15.63;9.27;;;25.60;91.10;;;;;;5057244;27;20211;-72
2022/09/08 07:52:37;;;;;;;12.87;9.23;;;25.80;91.00;;;;;;5097170;28;20252;-71
2022/09/08 07:55:27;;;;;;;12.83;9.37;;;25.80;91.00;;;;;;5105940;27;20214;-71
2022/09/08 07:58:15;;;;;;;13.53;9.13;;;25.90;90.70;;;;;;5099019;27;20214;-71
2022/09/08 08:00:51;;;;;;;13.43;9.10;;;26.00;90.40;;;;;;5116705;27;20210;-71
2022/09/08 08:03:33;;;;;;;11.67;8.40;;;26.20;90.00;;;;;;5110087;27;20235;-70
2022/09/08 08:06:17;;;;;;;13.77;8.53;;;26.20;89.40;;;;;;5114949;27;20243;-70
2022/09/08 08:08:59;;;;;;;9.37;7.67;;;26.40;89.00;;;;;;5117945;27;20207;-70
2022/09/08 08:11:32;;;;;;;12.93;8.57;;;26.50;88.80;;;;;;5080424;28;20222;-70
2022/09/08 08:14:14;;;;;;;11.87;8.23;;;26.60;88.70;;;;;;5110962;27;20264;-70
2022/09/08 08:17:09;;;;;;;12.53;7.83;;;26.70;88.10;;;;;;5120387;27;20664;-70
2022/09/08 08:19:52;;;;;;;8.67;6.00;;;26.90;85.80;;;;;;5113968;27;20310;-70
2022/09/08 08:22:33;;;;;;;7.13;5.77;;;27.00;84.30;;;;;;5120245;27;20599;-70
2022/09/08 08:25:04;;;;;;;10.37;6.70;;;27.10;82.90;;;;;;5118474;27;20535;-70
2022/09/08 08:27:52;;;;;;;8.97;6.03;;;27.20;82.50;;;;;;5103476;27;20207;-70
2022/09/08 08:30:23;;;;;;;9.60;4.13;;;27.30;81.70;;;;;;5120644;27;20734;-71
2022/09/08 08:33:03;;;;;;;12.30;5.67;;;27.40;78.80;;;;;;5104558;27;20198;-70
2022/09/08 08:35:47;;;;;;;8.03;5.10;;;27.40;78.00;;;;;;5103890;27;20208;-70
2022/09/08 08:38:19;;;;;;;8.37;5.40;;;27.40;77.80;;;;;;5097557;27;20226;-71
2022/09/08 08:40:53;;;;;;;10.77;5.10;;;27.50;78.40;;;;;;5119454;27;20199;-71
2022/09/08 08:43:38;;;;;;;10.00;5.10;;;27.50;77.60;;;;;;5124591;27;20202;-71
2022/09/08 08:46:24;;;;;;;11.90;5.60;;;27.60;76.50;;;;;;5116025;27;20734;-71
2022/09/08 08:49:12;;;;;;;12.73;5.60;;;27.80;76.10;;;;;;5119144;27;20312;-71
2022/09/08 08:52:26;;;;;;;9.00;4.67;;;28.00;74.40;;;;;;5110876;27;21798;-71
2022/09/08 08:55:36;;;;;;;8.77;4.03;;;28.10;75.00;;;;;;5014055;28;20282;-71
2022/09/08 08:58:37;;;;;;;11.77;4.70;;;28.40;74.20;;;;;;5096156;28;20550;-71
2022/09/08 09:01:29;;;;;;;11.93;4.47;;;28.60;73.60;;;;;;5108592;27;20206;-71
2022/09/08 09:04:08;;;;;;;9.80;4.73;;;28.90;71.90;;;;;;5116218;27;20205;-71
2022/09/08 09:06:35;;;;;;;6.97;3.60;;;29.10;72.70;;;;;;5118880;27;20272;-72
2022/09/08 09:09:14;;;;;;;6.77;4.07;;;29.10;70.50;;;;;;5117436;27;20499;-71
2022/09/08 09:12:17;;;;;;;7.30;4.13;;;29.10;70.80;;;;;;5118740;27;20211;-71
2022/09/08 09:14:52;;;;;;;10.33;4.80;;;29.20;71.60;;;;;;5124571;27;20486;-71
2022/09/08 09:18:04;;;;;;;8.60;4.63;;;29.30;71.30;;;;;;5111517;27;20200;-71
2022/09/08 09:20:42;;;;;;;6.97;4.00;;;29.30;69.40;;;;;;5114188;27;20248;-72
2022/09/08 09:23:47;;;;;;;8.37;3.73;;;29.40;70.00;;;;;;5116779;27;20265;-72
2022/09/08 09:26:17;;;;;;;9.10;4.13;;;29.40;69.30;;;;;;5119620;27;20215;-72
2022/09/08 09:28:55;;;;;;;8.73;4.50;;;29.60;69.80;;;;;;5112830;27;20550;-72
2022/09/08 09:31:26;;;;;;;8.63;4.60;;;29.70;69.20;;;;;;5087267;28;20264;-72
2022/09/08 09:34:24;;;;;;;4.43;3.57;;;29.80;68.30;;;;;;5113217;27;20234;-72
2022/09/08 09:37:42;;;;;;;7.60;3.10;;;29.90;67.20;;;;;;5092335;28;20274;-72
2022/09/08 09:40:36;;;;;;;6.40;3.27;;;30.00;66.60;;;;;;5070804;28;20224;-72
2022/09/08 09:43:36;;;;;;;7.90;3.63;;;30.10;64.00;;;;;;5109659;28;20258;-72
2022/09/08 09:46:18;;;;;;;6.67;3.23;;;30.10;62.80;;;;;;5121336;28;20210;-72
2022/09/08 09:49:14;;;;;;;7.87;3.20;;;30.10;61.20;;;;;;5120248;28;20587;-72
2022/09/08 09:51:59;;;;;;;7.43;3.47;;;30.10;62.10;;;;;;5119532;28;20273;-72
2022/09/08 09:54:51;;;;;;;6.97;3.53;;;30.20;62.60;;;;;;5095941;28;20204;-72
2022/09/08 09:58:05;;;;;;;7.67;3.70;;;30.30;62.60;;;;;;5115502;28;20208;-72
2022/09/08 10:00:57;;;;;;;6.13;2.60;;;30.40;63.00;;;;;;5114837;28;20576;-72
2022/09/08 10:03:35;;;;;;;7.07;3.07;;;30.50;61.00;;;;;;5096978;28;20216;-72
2022/09/08 10:06:46;;;;;;;11.17;3.13;;;30.60;61.10;;;;;;5115439;28;20232;-73
2022/09/08 10:10:13;;;;;;;8.70;2.77;;;30.80;60.20;;;;;;5104605;28;20227;-73
2022/09/08 10:13:01;;;;;;;6.90;3.07;;;31.10;60.10;;;;;;5120693;28;20193;-73
2022/09/08 10:15:59;;;;;;;4.23;2.70;;;31.30;58.90;;;;;;5118438;28;20638;-72
2022/09/08 10:19:10;;;;;;;5.57;2.63;;;31.40;59.30;;;;;;5101942;28;20254;-72
2022/09/08 10:21:48;;;;;;;8.90;3.07;;;31.60;57.70;;;;;;5017616;28;20503;-72
2022/09/08 10:24:36;;;;;;;9.10;2.57;;;31.70;58.00;;;;;;5015404;28;20207;-73
2022/09/08 10:27:27;;;;;;;6.73;2.63;;;31.80;58.50;;;;;;5082799;28;20704;-73
2022/09/08 10:30:18;;;;;;;9.83;2.83;;;32.00;58.20;;;;;;5099867;27;20236;-73
2022/09/08 10:33:15;;;;;;;8.90;3.03;;;32.10;57.50;;;;;;5125010;27;20204;-73
2022/09/08 10:35:52;;;;;;;6.97;2.60;;;32.20;56.50;;;;;;5117725;27;20203;-73
2022/09/08 10:38:56;;;;;;;5.63;2.67;;;32.30;56.70;;;;;;5125495;27;20223;-73
2022/09/08 10:42:03;;;;;;;7.27;3.17;;;32.40;56.30;;;;;;5105277;27;20212;-73
2022/09/08 10:44:39;;;;;;;9.60;2.70;;;32.50;56.00;;;;;;5120149;27;20196;-72
2022/09/08 10:47:28;;;;;;;4.67;2.40;;;32.50;55.00;;;;;;5118404;27;20215;-72
2022/09/08 10:50:14;;;;;;;7.37;2.77;;;32.60;55.40;;;;;;5109895;27;20196;-73
2022/09/08 10:53:16;;;;;;;8.80;2.23;;;32.70;55.60;;;;;;5119192;27;20224;-73
2022/09/08 10:56:02;;;;;;;8.43;3.53;;;32.80;53.40;;;;;;5049968;27;20231;-73
2022/09/08 10:58:57;;;;;;;6.73;2.53;;;32.90;54.80;;;;;;5106574;27;20203;-70
2022/09/08 11:01:53;;;;;;;7.83;2.77;;;33.00;53.10;;;;;;5090329;27;20205;-70
2022/09/08 11:04:38;;;;;;;8.07;3.00;;;33.00;53.80;;;;;;5117727;27;20208;-69
2022/09/08 11:07:21;;;;;;;6.63;2.57;;;33.10;53.00;;;;;;5101883;28;20253;-73
2022/09/08 11:10:03;;;;;;;4.03;2.27;;;33.10;52.70;;;;;;5117889;27;20238;-73
2022/09/08 11:13:18;;;;;;;5.47;3.00;;;33.20;53.50;;;;;;5112928;27;20192;-69
2022/09/08 11:16:02;;;;;;;4.53;2.30;;;33.30;54.00;;;;;;5106821;27;20239;-70
2022/09/08 11:19:12;;;;;;;6.60;2.63;;;33.40;52.60;;;;;;5085448;28;20216;-73
2022/09/08 11:22:24;;;;;;;10.77;3.23;;;33.40;51.60;;;;;;5119049;27;20213;-74
2022/09/08 11:25:35;;;;;;;6.10;2.80;;;33.40;51.20;;;;;;5122553;27;20191;-73
2022/09/08 11:28:23;;;;;;;4.67;2.33;;;33.40;51.80;;;;;;5106355;27;20260;-70
2022/09/08 11:31:07;;;;;;;4.70;2.43;;;33.30;51.90;;;;;;5114979;27;20217;-73
2022/09/08 11:33:42;;;;;;;7.77;2.90;;;33.20;52.10;;;;;;5113342;27;20211;-71
2022/09/08 11:36:31;;;;;;;5.53;2.30;;;33.30;52.50;;;;;;5118599;27;20208;-70
2022/09/08 11:39:24;;;;;;;9.10;2.60;;;33.40;52.70;;;;;;5119609;27;20189;-73
2022/09/08 11:42:12;;;;;;;5.87;3.00;;;33.50;51.80;;;;;;5111113;27;20209;-70
2022/09/08 11:45:16;;;;;;;11.43;2.90;;;33.60;52.10;;;;;;5115217;27;20245;-70
2022/09/08 11:47:58;;;;;;;6.50;2.80;;;33.60;51.80;;;;;;5115027;27;20351;-70
2022/09/08 11:50:37;;;;;;;5.57;2.40;;;33.70;51.80;;;;;;5101682;28;20236;-70
2022/09/08 11:53:41;;;;;;;5.00;3.17;;;33.70;50.60;;;;;;5119506;27;20204;-70
2022/09/08 11:57:03;;;;;;;7.53;2.33;;;33.60;51.00;;;;;;5110146;27;20276;-74
2022/09/08 11:59:49;;;;;;;3.83;2.00;;;33.50;50.00;;;;;;5092662;27;20277;-74
2022/09/08 12:02:37;;;;;;;4.33;1.93;;;33.40;49.70;;;;;;5103712;27;20273;-73
2022/09/08 12:05:23;;;;;;;6.23;2.00;;;33.50;49.50;;;;;;5118921;27;20608;-74
2022/09/08 12:08:19;;;;;;;7.53;2.53;;;33.60;48.90;;;;;;5121673;27;20553;-74
2022/09/08 12:10:55;;;;;;;5.93;2.50;;;33.80;49.10;;;;;;5121040;27;20263;-71
2022/09/08 12:13:31;;;;;;;9.17;2.10;;;33.80;47.90;;;;;;5096718;27;20230;-74
2022/09/08 12:16:07;;;;;;;8.13;1.70;;;33.70;49.60;;;;;;5117733;27;20585;-71
2022/09/08 12:19:06;;;;;;;7.83;2.23;;;33.70;49.20;;;;;;5119112;27;20273;-70
2022/09/08 12:21:48;;;;;;;5.10;1.93;;;33.80;48.30;;;;;;5096339;27;20204;-70
2022/09/08 12:24:39;;;;;;;4.43;1.67;;;33.80;47.30;;;;;;5113489;27;20239;-70
2022/09/08 12:27:56;;;;;;;3.97;1.80;;;33.90;46.80;;;;;;5116800;27;20218;-70
2022/09/08 12:30:48;;;;;;;5.13;2.10;;;33.90;46.50;;;;;;5115666;27;20239;-69
2022/09/08 12:33:27;;;;;;;4.43;1.87;;;34.00;46.70;;;;;;5119689;27;20622;-69
2022/09/08 12:36:05;;;;;;;7.33;1.97;;;33.90;46.00;;;;;;5116789;27;20199;-70
2022/09/08 12:38:55;;;;;;;7.30;1.60;;;33.90;46.90;;;;;;5097173;27;20208;-69
2022/09/08 12:41:41;;;;;;;6.27;1.87;;;33.90;46.50;;;;;;5091466;28;20269;-71
2022/09/08 12:44:23;;;;;;;4.73;1.90;;;34.00;44.70;;;;;;5102056;28;20638;-69
2022/09/08 12:46:59;;;;;;;7.67;1.80;;;33.90;45.00;;;;;;5120596;27;20799;-69
2022/09/08 12:49:56;;;;;;;7.67;2.33;;;33.90;46.40;;;;;;5114961;27;20279;-69
2022/09/08 12:52:48;;;;;;;5.47;1.60;;;33.90;46.30;;;;;;5105412;27;20224;-69
2022/09/08 12:55:16;;;;;;;6.37;1.70;;;33.80;46.50;;;;;;5102377;27;20225;-70
2022/09/08 12:57:56;;;;;;;5.23;1.90;;;33.80;46.70;;;;;;5117701;27;20229;-70
2022/09/08 13:00:29;;;;;;;4.00;1.70;;;33.90;46.40;;;;;;5098327;28;20996;-69
2022/09/08 13:03:28;;;;;;;8.27;2.60;;;33.90;45.80;;;;;;5112704;27;20227;-69
2022/09/08 13:06:04;;;;;;;9.73;2.00;;;33.90;46.20;;;;;;5114234;27;20195;-69
2022/09/08 13:08:44;;;;;;;5.53;2.13;;;34.00;46.00;;;;;;5116633;27;20249;-69
2022/09/08 13:11:31;;;;;;;6.60;2.13;;;34.00;46.20;;;;;;5121573;27;20241;-69
2022/09/08 13:14:05;;;;;;;7.10;1.87;;;34.00;46.40;;;;;;5120024;27;20254;-69
2022/09/08 13:16:44;;;;;;;4.97;2.10;;;34.10;47.10;;;;;;5116060;27;20208;-69
2022/09/08 13:19:16;;;;;;;8.77;2.03;;;34.10;47.00;;;;;;5104595;27;20236;-69
2022/09/08 13:22:12;;;;;;;12.37;2.17;;;34.20;47.00;;;;;;5114986;27;20191;-69
2022/09/08 13:24:53;;;;;;;6.37;2.00;;;34.20;46.60;;;;;;5115528;27;20645;-69
2022/09/08 13:27:31;;;;;;;4.10;1.90;;;34.20;46.20;;;;;;5114033;27;20253;-70
2022/09/08 13:29:58;;;;;;;3.10;1.90;;;34.10;46.80;;;;;;5108962;27;20217;-69
2022/09/08 13:33:09;;;;;;;6.10;2.27;;;33.90;46.70;;;;;;5114509;28;20221;-70
2022/09/08 13:35:46;;;;;;;5.43;1.67;;;33.80;46.60;;;;;;5116267;27;20660;-70
2022/09/08 13:38:28;;;;;;;4.97;1.70;;;33.80;48.00;;;;;;5116177;27;20220;-69